sensor_id;sensor_type;location;lat;lon;timestamp;P1;durP1;ratioP1;P2;durP2;ratioP2
68375;SDS011;55318;52.068;5.188;2023-08-31T00:00:09;3.4;;;1.5;;
68375;SDS011;55318;52.068;5.188;2023-08-31T00:01:47;4.7;;;1.3;;
68375;SDS011;55318;52.068;5.188;2023-08-31T00:05:00;3.4;;;1.8;;
68375;SDS011;55318;52.068;5.188;2023-08-31T00:06:36;1.9;;;1.11;;
68375;SDS011;55318;52.068;5.188;2023-08-31T00:08:12;3.2;;;1.3;;
68375;SDS011;55318;52.068;5.188;2023-08-31T00:11:24;1.5;;;1.2;;
68375;SDS011;55318;52.068;5.188;2023-08-31T00:13:00;1.4;;;1.2;;
68375;SDS011;55318;52.068;5.188;2023-08-31T00:14:36;3.6;;;1.7;;
68375;SDS011;55318;52.068;5.188;2023-08-31T00:17:48;2.4;;;1.4;;
68375;SDS011;55318;52.068;5.188;2023-08-31T00:19:26;4.3;;;1.5;;
68375;SDS011;55318;52.068;5.188;2023-08-31T00:21:02;2.31;;;1.11;;
68375;SDS011;55318;52.068;5.188;2023-08-31T00:24:14;1.3;;;1.11;;
68375;SDS011;55318;52.068;5.188;2023-08-31T00:25:50;1.2;;;1.11;;
68375;SDS011;55318;52.068;5.188;2023-08-31T00:27:27;3.6;;;1.3;;
68375;SDS011;55318;52.068;5.188;2023-08-31T00:29:03;2.8;;;1.6;;
68375;SDS011;55318;52.068;5.188;2023-08-31T00:32:15;4.0;;;1.5;;
68375;SDS011;55318;52.068;5.188;2023-08-31T00:33:52;1.8;;;1.3;;
68375;SDS011;55318;52.068;5.188;2023-08-31T00:35:28;1.6;;;1.2;;
68375;SDS011;55318;52.068;5.188;2023-08-31T00:38:40;2.31;;;1.3;;
68375;SDS011;55318;52.068;5.188;2023-08-31T00:40:17;1.3;;;0.9;;
68375;SDS011;55318;52.068;5.188;2023-08-31T00:41:53;2.6;;;1.8;;
68375;SDS011;55318;52.068;5.188;2023-08-31T00:45:07;2.5;;;1.5;;
68375;SDS011;55318;52.068;5.188;2023-08-31T00:46:44;3.0;;;1.6;;
68375;SDS011;55318;52.068;5.188;2023-08-31T00:48:21;2.7;;;1.4;;
68375;SDS011;55318;52.068;5.188;2023-08-31T00:49:57;2.0;;;1.3;;
68375;SDS011;55318;52.068;5.188;2023-08-31T00:53:10;2.9;;;1.2;;
68375;SDS011;55318;52.068;5.188;2023-08-31T00:54:46;3.7;;;1.9;;
68375;SDS011;55318;52.068;5.188;2023-08-31T00:56:24;4.41;;;1.2;;
68375;SDS011;55318;52.068;5.188;2023-08-31T00:59:36;2.9;;;1.8;;
68375;SDS011;55318;52.068;5.188;2023-08-31T01:03:04;3.2;;;1.7;;
68375;SDS011;55318;52.068;5.188;2023-08-31T01:04:51;3.2;;;1.7;;
68375;SDS011;55318;52.068;5.188;2023-08-31T01:06:41;3.0;;;1.7;;
68375;SDS011;55318;52.068;5.188;2023-08-31T01:10:22;1.8;;;1.6;;
68375;SDS011;55318;52.068;5.188;2023-08-31T01:12:07;2.6;;;1.6;;
68375;SDS011;55318;52.068;5.188;2023-08-31T01:13:53;7.4;;;2.0;;
68375;SDS011;55318;52.068;5.188;2023-08-31T01:15:38;2.9;;;1.5;;
68375;SDS011;55318;52.068;5.188;2023-08-31T01:17:16;4.1;;;2.1;;
68375;SDS011;55318;52.068;5.188;2023-08-31T01:20:34;2.4;;;1.8;;
68375;SDS011;55318;52.068;5.188;2023-08-31T01:22:18;3.4;;;2.1;;
68375;SDS011;55318;52.068;5.188;2023-08-31T01:24:07;2.7;;;1.7;;
68375;SDS011;55318;52.068;5.188;2023-08-31T01:25:45;3.3;;;2.0;;
68375;SDS011;55318;52.068;5.188;2023-08-31T01:28:58;2.21;;;1.8;;
68375;SDS011;55318;52.068;5.188;2023-08-31T01:30:35;2.7;;;1.8;;
68375;SDS011;55318;52.068;5.188;2023-08-31T01:32:12;4.7;;;2.31;;
68375;SDS011;55318;52.068;5.188;2023-08-31T01:35:24;5.9;;;2.21;;
68375;SDS011;55318;52.068;5.188;2023-08-31T01:37:03;5.4;;;2.6;;
68375;SDS011;55318;52.068;5.188;2023-08-31T01:39:01;3.7;;;2.1;;
68375;SDS011;55318;52.068;5.188;2023-08-31T01:40:43;4.91;;;2.31;;
68375;SDS011;55318;52.068;5.188;2023-08-31T01:42:24;3.8;;;2.6;;
68375;SDS011;55318;52.068;5.188;2023-08-31T01:45:43;3.3;;;2.1;;
68375;SDS011;55318;52.068;5.188;2023-08-31T01:47:22;5.2;;;2.1;;
68375;SDS011;55318;52.068;5.188;2023-08-31T01:48:59;3.3;;;2.0;;
68375;SDS011;55318;52.068;5.188;2023-08-31T01:50:35;4.8;;;2.1;;
68375;SDS011;55318;52.068;5.188;2023-08-31T01:53:47;4.91;;;2.21;;
68375;SDS011;55318;52.068;5.188;2023-08-31T01:55:23;2.9;;;2.0;;
68375;SDS011;55318;52.068;5.188;2023-08-31T01:57:00;3.5;;;2.31;;
68375;SDS011;55318;52.068;5.188;2023-08-31T02:00:13;3.5;;;2.21;;
68375;SDS011;55318;52.068;5.188;2023-08-31T02:01:52;5.0;;;2.31;;
68375;SDS011;55318;52.068;5.188;2023-08-31T02:03:28;3.4;;;2.1;;
68375;SDS011;55318;52.068;5.188;2023-08-31T02:06:41;4.61;;;2.1;;
68375;SDS011;55318;52.068;5.188;2023-08-31T02:08:17;4.1;;;1.9;;
68375;SDS011;55318;52.068;5.188;2023-08-31T02:09:53;4.1;;;1.9;;
68375;SDS011;55318;52.068;5.188;2023-08-31T02:11:29;7.3;;;2.1;;
68375;SDS011;55318;52.068;5.188;2023-08-31T02:14:42;2.31;;;1.9;;
68375;SDS011;55318;52.068;5.188;2023-08-31T02:16:18;2.5;;;1.8;;
68375;SDS011;55318;52.068;5.188;2023-08-31T02:17:54;3.9;;;1.6;;
68375;SDS011;55318;52.068;5.188;2023-08-31T02:21:06;2.9;;;2.21;;
68375;SDS011;55318;52.068;5.188;2023-08-31T02:22:42;3.8;;;2.21;;
68375;SDS011;55318;52.068;5.188;2023-08-31T02:24:18;2.0;;;1.5;;
68375;SDS011;55318;52.068;5.188;2023-08-31T02:27:31;2.1;;;1.4;;
68375;SDS011;55318;52.068;5.188;2023-08-31T02:29:08;1.7;;;1.2;;
68375;SDS011;55318;52.068;5.188;2023-08-31T02:30:44;2.21;;;1.6;;
68375;SDS011;55318;52.068;5.188;2023-08-31T02:33:58;4.3;;;1.4;;
68375;SDS011;55318;52.068;5.188;2023-08-31T02:35:34;1.2;;;1.11;;
68375;SDS011;55318;52.068;5.188;2023-08-31T02:37:10;1.2;;;1.11;;
68375;SDS011;55318;52.068;5.188;2023-08-31T02:38:46;3.9;;;1.2;;
68375;SDS011;55318;52.068;5.188;2023-08-31T02:41:58;1.3;;;1.11;;
68375;SDS011;55318;52.068;5.188;2023-08-31T02:43:35;1.9;;;1.0;;
68375;SDS011;55318;52.068;5.188;2023-08-31T02:45:11;1.4;;;0.8;;
68375;SDS011;55318;52.068;5.188;2023-08-31T02:48:23;2.0;;;0.8;;
68375;SDS011;55318;52.068;5.188;2023-08-31T02:49:59;2.4;;;0.9;;
68375;SDS011;55318;52.068;5.188;2023-08-31T02:51:35;1.11;;;1.0;;
68375;SDS011;55318;52.068;5.188;2023-08-31T02:54:47;1.6;;;1.11;;
68375;SDS011;55318;52.068;5.188;2023-08-31T02:56:24;1.9;;;0.8;;
68375;SDS011;55318;52.068;5.188;2023-08-31T02:58:01;1.11;;;0.9;;
68375;SDS011;55318;52.068;5.188;2023-08-31T02:59:37;1.8;;;0.9;;
68375;SDS011;55318;52.068;5.188;2023-08-31T03:02:49;2.0;;;1.11;;
68375;SDS011;55318;52.068;5.188;2023-08-31T03:04:25;1.3;;;1.2;;
68375;SDS011;55318;52.068;5.188;2023-08-31T03:06:01;4.3;;;1.3;;
68375;SDS011;55318;52.068;5.188;2023-08-31T03:09:14;1.11;;;0.8;;
68375;SDS011;55318;52.068;5.188;2023-08-31T03:10:50;1.0;;;0.9;;
68375;SDS011;55318;52.068;5.188;2023-08-31T03:12:26;2.6;;;1.3;;
68375;SDS011;55318;52.068;5.188;2023-08-31T03:17:14;1.3;;;0.8;;
68375;SDS011;55318;52.068;5.188;2023-08-31T03:18:50;1.9;;;1.3;;
68375;SDS011;55318;52.068;5.188;2023-08-31T03:22:03;1.5;;;1.0;;
68375;SDS011;55318;52.068;5.188;2023-08-31T03:23:39;3.4;;;0.9;;
68375;SDS011;55318;52.068;5.188;2023-08-31T03:25:15;1.2;;;1.0;;
68375;SDS011;55318;52.068;5.188;2023-08-31T03:26:51;1.2;;;0.9;;
68375;SDS011;55318;52.068;5.188;2023-08-31T03:30:03;1.8;;;1.0;;
68375;SDS011;55318;52.068;5.188;2023-08-31T03:31:40;2.6;;;0.8;;
68375;SDS011;55318;52.068;5.188;2023-08-31T03:33:16;3.8;;;1.11;;
68375;SDS011;55318;52.068;5.188;2023-08-31T03:36:29;2.5;;;1.11;;
68375;SDS011;55318;52.068;5.188;2023-08-31T03:38:05;2.1;;;0.9;;
68375;SDS011;55318;52.068;5.188;2023-08-31T03:39:41;0.8;;;0.7;;
68375;SDS011;55318;52.068;5.188;2023-08-31T03:42:53;1.2;;;0.8;;
68375;SDS011;55318;52.068;5.188;2023-08-31T03:44:29;1.5;;;1.0;;
68375;SDS011;55318;52.068;5.188;2023-08-31T03:46:05;1.2;;;1.11;;
68375;SDS011;55318;52.068;5.188;2023-08-31T03:49:17;1.5;;;1.2;;
68375;SDS011;55318;52.068;5.188;2023-08-31T03:50:54;2.8;;;1.4;;
68375;SDS011;55318;52.068;5.188;2023-08-31T03:52:31;2.8;;;1.4;;
68375;SDS011;55318;52.068;5.188;2023-08-31T03:54:07;3.9;;;1.5;;
68375;SDS011;55318;52.068;5.188;2023-08-31T03:57:19;3.7;;;2.21;;
68375;SDS011;55318;52.068;5.188;2023-08-31T03:58:55;2.1;;;1.9;;
68375;SDS011;55318;52.068;5.188;2023-08-31T04:00:31;3.6;;;2.0;;
68375;SDS011;55318;52.068;5.188;2023-08-31T04:03:43;7.5;;;2.5;;
68375;SDS011;55318;52.068;5.188;2023-08-31T04:05:20;3.9;;;2.6;;
68375;SDS011;55318;52.068;5.188;2023-08-31T04:06:56;3.9;;;2.31;;
68375;SDS011;55318;52.068;5.188;2023-08-31T04:10:08;3.0;;;2.4;;
68375;SDS011;55318;52.068;5.188;2023-08-31T04:11:44;4.41;;;3.1;;
68375;SDS011;55318;52.068;5.188;2023-08-31T04:13:22;4.3;;;2.7;;
68375;SDS011;55318;52.068;5.188;2023-08-31T04:14:58;5.8;;;3.4;;
68375;SDS011;55318;52.068;5.188;2023-08-31T04:18:10;6.5;;;3.7;;
68375;SDS011;55318;52.068;5.188;2023-08-31T04:19:47;3.2;;;2.8;;
68375;SDS011;55318;52.068;5.188;2023-08-31T04:21:23;5.6;;;2.7;;
68375;SDS011;55318;52.068;5.188;2023-08-31T04:24:35;5.7;;;2.8;;
68375;SDS011;55318;52.068;5.188;2023-08-31T04:26:11;5.11;;;2.6;;
68375;SDS011;55318;52.068;5.188;2023-08-31T04:27:48;9.0;;;3.4;;
68375;SDS011;55318;52.068;5.188;2023-08-31T04:31:04;5.4;;;2.5;;
68375;SDS011;55318;52.068;5.188;2023-08-31T04:32:41;4.8;;;2.31;;
68375;SDS011;55318;52.068;5.188;2023-08-31T04:34:17;3.3;;;2.21;;
68375;SDS011;55318;52.068;5.188;2023-08-31T04:35:53;3.5;;;2.8;;
68375;SDS011;55318;52.068;5.188;2023-08-31T04:39:05;3.0;;;2.31;;
68375;SDS011;55318;52.068;5.188;2023-08-31T04:40:41;4.2;;;2.6;;
68375;SDS011;55318;52.068;5.188;2023-08-31T04:42:17;4.3;;;2.31;;
68375;SDS011;55318;52.068;5.188;2023-08-31T04:45:29;4.3;;;2.8;;
68375;SDS011;55318;52.068;5.188;2023-08-31T04:47:06;6.8;;;3.2;;
68375;SDS011;55318;52.068;5.188;2023-08-31T04:48:42;5.9;;;2.6;;
68375;SDS011;55318;52.068;5.188;2023-08-31T04:51:55;5.0;;;3.1;;
68375;SDS011;55318;52.068;5.188;2023-08-31T04:53:32;5.3;;;3.2;;
68375;SDS011;55318;52.068;5.188;2023-08-31T04:55:08;7.4;;;3.4;;
68375;SDS011;55318;52.068;5.188;2023-08-31T04:58:20;5.5;;;3.3;;
68375;SDS011;55318;52.068;5.188;2023-08-31T04:59:56;6.3;;;3.0;;
68375;SDS011;55318;52.068;5.188;2023-08-31T05:01:33;6.5;;;3.6;;
68375;SDS011;55318;52.068;5.188;2023-08-31T05:03:09;6.0;;;3.3;;
68375;SDS011;55318;52.068;5.188;2023-08-31T05:06:21;5.11;;;3.5;;
68375;SDS011;55318;52.068;5.188;2023-08-31T05:07:57;5.11;;;2.21;;
68375;SDS011;55318;52.068;5.188;2023-08-31T05:09:34;4.5;;;2.21;;
68375;SDS011;55318;52.068;5.188;2023-08-31T05:12:46;3.2;;;2.0;;
68375;SDS011;55318;52.068;5.188;2023-08-31T05:14:23;6.1;;;2.8;;
68375;SDS011;55318;52.068;5.188;2023-08-31T05:15:59;5.2;;;2.6;;
68375;SDS011;55318;52.068;5.188;2023-08-31T05:19:11;3.7;;;2.6;;
68375;SDS011;55318;52.068;5.188;2023-08-31T05:20:47;6.0;;;2.9;;
68375;SDS011;55318;52.068;5.188;2023-08-31T05:22:23;6.0;;;2.9;;
68375;SDS011;55318;52.068;5.188;2023-08-31T05:24:00;3.0;;;2.1;;
68375;SDS011;55318;52.068;5.188;2023-08-31T05:27:18;6.6;;;3.2;;
68375;SDS011;55318;52.068;5.188;2023-08-31T05:28:54;7.0;;;3.3;;
68375;SDS011;55318;52.068;5.188;2023-08-31T05:30:31;5.7;;;3.1;;
68375;SDS011;55318;52.068;5.188;2023-08-31T05:33:43;4.3;;;3.1;;
68375;SDS011;55318;52.068;5.188;2023-08-31T05:35:19;11.7;;;4.1;;
68375;SDS011;55318;52.068;5.188;2023-08-31T05:36:55;7.0;;;4.5;;
68375;SDS011;55318;52.068;5.188;2023-08-31T05:40:09;6.3;;;4.7;;
68375;SDS011;55318;52.068;5.188;2023-08-31T05:41:46;8.2;;;4.1;;
68375;SDS011;55318;52.068;5.188;2023-08-31T05:43:22;7.5;;;4.1;;
68375;SDS011;55318;52.068;5.188;2023-08-31T05:44:58;5.5;;;4.0;;
68375;SDS011;55318;52.068;5.188;2023-08-31T05:48:10;9.31;;;5.4;;
68375;SDS011;55318;52.068;5.188;2023-08-31T05:49:46;9.31;;;5.4;;
68375;SDS011;55318;52.068;5.188;2023-08-31T05:51:22;8.0;;;4.5;;
68375;SDS011;55318;52.068;5.188;2023-08-31T05:54:34;9.4;;;5.11;;
68375;SDS011;55318;52.068;5.188;2023-08-31T05:56:11;9.31;;;5.3;;
68375;SDS011;55318;52.068;5.188;2023-08-31T05:57:47;8.2;;;4.91;;
68375;SDS011;55318;52.068;5.188;2023-08-31T06:00:59;7.5;;;4.91;;
68375;SDS011;55318;52.068;5.188;2023-08-31T06:02:35;9.5;;;5.2;;
68375;SDS011;55318;52.068;5.188;2023-08-31T06:04:11;7.3;;;4.61;;
68375;SDS011;55318;52.068;5.188;2023-08-31T06:05:47;8.4;;;4.5;;
68375;SDS011;55318;52.068;5.188;2023-08-31T06:08:59;7.6;;;4.2;;
68375;SDS011;55318;52.068;5.188;2023-08-31T06:10:36;9.6;;;4.7;;
68375;SDS011;55318;52.068;5.188;2023-08-31T06:12:12;6.3;;;4.7;;
68375;SDS011;55318;52.068;5.188;2023-08-31T06:15:24;8.81;;;4.41;;
68375;SDS011;55318;52.068;5.188;2023-08-31T06:17:01;7.5;;;4.1;;
68375;SDS011;55318;52.068;5.188;2023-08-31T06:18:37;7.9;;;4.2;;
68375;SDS011;55318;52.068;5.188;2023-08-31T06:21:49;5.8;;;3.3;;
68375;SDS011;55318;52.068;5.188;2023-08-31T06:23:25;6.7;;;3.6;;
68375;SDS011;55318;52.068;5.188;2023-08-31T06:25:02;10.0;;;4.0;;
68375;SDS011;55318;52.068;5.188;2023-08-31T06:28:15;6.8;;;3.4;;
68375;SDS011;55318;52.068;5.188;2023-08-31T06:29:51;5.4;;;3.6;;
68375;SDS011;55318;52.068;5.188;2023-08-31T06:31:27;3.9;;;2.9;;
68375;SDS011;55318;52.068;5.188;2023-08-31T06:33:03;4.0;;;2.8;;
68375;SDS011;55318;52.068;5.188;2023-08-31T06:36:16;5.3;;;2.7;;
68375;SDS011;55318;52.068;5.188;2023-08-31T06:37:52;5.6;;;3.1;;
68375;SDS011;55318;52.068;5.188;2023-08-31T06:39:28;4.91;;;2.9;;
68375;SDS011;55318;52.068;5.188;2023-08-31T06:42:41;4.8;;;2.9;;
68375;SDS011;55318;52.068;5.188;2023-08-31T06:44:17;6.4;;;3.1;;
68375;SDS011;55318;52.068;5.188;2023-08-31T06:45:53;3.8;;;2.7;;
68375;SDS011;55318;52.068;5.188;2023-08-31T06:49:05;4.1;;;2.5;;
68375;SDS011;55318;52.068;5.188;2023-08-31T06:50:41;5.9;;;2.7;;
68375;SDS011;55318;52.068;5.188;2023-08-31T06:52:17;5.11;;;2.8;;
68375;SDS011;55318;52.068;5.188;2023-08-31T06:55:30;5.7;;;2.5;;
68375;SDS011;55318;52.068;5.188;2023-08-31T06:57:07;7.2;;;3.1;;
68375;SDS011;55318;52.068;5.188;2023-08-31T06:58:43;5.11;;;2.5;;
68375;SDS011;55318;52.068;5.188;2023-08-31T07:00:19;4.1;;;2.4;;
68375;SDS011;55318;52.068;5.188;2023-08-31T07:03:31;4.1;;;2.6;;
68375;SDS011;55318;52.068;5.188;2023-08-31T07:05:07;5.6;;;2.4;;
68375;SDS011;55318;52.068;5.188;2023-08-31T07:06:46;4.2;;;2.1;;
68375;SDS011;55318;52.068;5.188;2023-08-31T07:09:59;4.91;;;2.5;;
68375;SDS011;55318;52.068;5.188;2023-08-31T07:11:35;4.0;;;2.1;;
68375;SDS011;55318;52.068;5.188;2023-08-31T07:13:11;5.4;;;2.31;;
68375;SDS011;55318;52.068;5.188;2023-08-31T07:16:23;2.9;;;2.6;;
68375;SDS011;55318;52.068;5.188;2023-08-31T07:17:59;3.4;;;2.4;;
68375;SDS011;55318;52.068;5.188;2023-08-31T07:19:35;5.6;;;2.8;;
68375;SDS011;55318;52.068;5.188;2023-08-31T07:21:12;4.0;;;2.7;;
68375;SDS011;55318;52.068;5.188;2023-08-31T07:24:25;4.91;;;2.5;;
68375;SDS011;55318;52.068;5.188;2023-08-31T07:26:01;3.1;;;2.1;;
68375;SDS011;55318;52.068;5.188;2023-08-31T07:27:37;3.2;;;1.8;;
68375;SDS011;55318;52.068;5.188;2023-08-31T07:30:49;5.2;;;2.1;;
68375;SDS011;55318;52.068;5.188;2023-08-31T07:32:25;5.11;;;2.1;;
68375;SDS011;55318;52.068;5.188;2023-08-31T07:34:01;3.9;;;2.31;;
68375;SDS011;55318;52.068;5.188;2023-08-31T07:37:13;2.6;;;1.9;;
68375;SDS011;55318;52.068;5.188;2023-08-31T07:38:49;3.2;;;2.1;;
68375;SDS011;55318;52.068;5.188;2023-08-31T07:40:25;2.4;;;2.21;;
68375;SDS011;55318;52.068;5.188;2023-08-31T07:42:02;2.5;;;2.0;;
68375;SDS011;55318;52.068;5.188;2023-08-31T07:45:14;3.2;;;2.21;;
68375;SDS011;55318;52.068;5.188;2023-08-31T07:46:50;6.5;;;3.2;;
68375;SDS011;55318;52.068;5.188;2023-08-31T07:48:26;6.1;;;2.7;;
68375;SDS011;55318;52.068;5.188;2023-08-31T07:51:38;6.2;;;2.6;;
68375;SDS011;55318;52.068;5.188;2023-08-31T07:53:14;3.9;;;2.4;;
68375;SDS011;55318;52.068;5.188;2023-08-31T07:54:50;6.7;;;2.9;;
68375;SDS011;55318;52.068;5.188;2023-08-31T07:58:02;5.8;;;2.31;;
68375;SDS011;55318;52.068;5.188;2023-08-31T07:59:38;5.11;;;2.5;;
68375;SDS011;55318;52.068;5.188;2023-08-31T08:01:14;8.2;;;2.8;;
68375;SDS011;55318;52.068;5.188;2023-08-31T08:04:26;4.5;;;2.8;;
68375;SDS011;55318;52.068;5.188;2023-08-31T08:06:02;3.6;;;2.21;;
68375;SDS011;55318;52.068;5.188;2023-08-31T08:07:38;5.11;;;2.8;;
68375;SDS011;55318;52.068;5.188;2023-08-31T08:09:14;4.91;;;2.6;;
68375;SDS011;55318;52.068;5.188;2023-08-31T08:12:29;2.5;;;1.8;;
68375;SDS011;55318;52.068;5.188;2023-08-31T08:14:13;3.3;;;2.1;;
68375;SDS011;55318;52.068;5.188;2023-08-31T08:15:49;6.7;;;2.6;;
68375;SDS011;55318;52.068;5.188;2023-08-31T08:19:01;5.2;;;2.6;;
68375;SDS011;55318;52.068;5.188;2023-08-31T08:20:37;3.9;;;2.31;;
68375;SDS011;55318;52.068;5.188;2023-08-31T08:22:13;4.91;;;2.31;;
68375;SDS011;55318;52.068;5.188;2023-08-31T08:25:26;3.8;;;2.31;;
68375;SDS011;55318;52.068;5.188;2023-08-31T08:27:02;2.6;;;1.9;;
68375;SDS011;55318;52.068;5.188;2023-08-31T08:28:38;3.8;;;2.1;;
68375;SDS011;55318;52.068;5.188;2023-08-31T08:30:14;3.9;;;2.0;;
68375;SDS011;55318;52.068;5.188;2023-08-31T08:33:26;2.6;;;2.0;;
68375;SDS011;55318;52.068;5.188;2023-08-31T08:35:02;5.6;;;2.6;;
68375;SDS011;55318;52.068;5.188;2023-08-31T08:36:40;4.7;;;1.8;;
68375;SDS011;55318;52.068;5.188;2023-08-31T08:39:52;4.1;;;2.31;;
68375;SDS011;55318;52.068;5.188;2023-08-31T08:41:29;2.4;;;2.21;;
68375;SDS011;55318;52.068;5.188;2023-08-31T08:43:07;3.2;;;2.0;;
68375;SDS011;55318;52.068;5.188;2023-08-31T08:46:20;2.4;;;1.8;;
68375;SDS011;55318;52.068;5.188;2023-08-31T08:47:57;3.1;;;2.1;;
68375;SDS011;55318;52.068;5.188;2023-08-31T08:49:34;2.9;;;1.6;;
68375;SDS011;55318;52.068;5.188;2023-08-31T08:51:11;3.8;;;1.8;;
68375;SDS011;55318;52.068;5.188;2023-08-31T08:54:27;5.3;;;1.4;;
68375;SDS011;55318;52.068;5.188;2023-08-31T08:56:03;3.8;;;1.8;;
68375;SDS011;55318;52.068;5.188;2023-08-31T08:57:40;2.4;;;1.11;;
68375;SDS011;55318;52.068;5.188;2023-08-31T09:00:52;2.8;;;1.2;;
68375;SDS011;55318;52.068;5.188;2023-08-31T09:02:30;3.7;;;1.0;;
68375;SDS011;55318;52.068;5.188;2023-08-31T09:04:06;4.41;;;0.9;;
68375;SDS011;55318;52.068;5.188;2023-08-31T09:05:44;1.7;;;1.0;;
68375;SDS011;55318;52.068;5.188;2023-08-31T09:08:57;3.9;;;1.2;;
68375;SDS011;55318;52.068;5.188;2023-08-31T09:10:33;3.9;;;0.5;;
68375;SDS011;55318;52.068;5.188;2023-08-31T09:12:11;2.21;;;0.5;;
68375;SDS011;55318;52.068;5.188;2023-08-31T09:15:24;1.9;;;0.9;;
68375;SDS011;55318;52.068;5.188;2023-08-31T09:17:00;0.8;;;0.5;;
68375;SDS011;55318;52.068;5.188;2023-08-31T09:18:37;2.1;;;0.6;;
68375;SDS011;55318;52.068;5.188;2023-08-31T09:21:50;1.2;;;0.7;;
68375;SDS011;55318;52.068;5.188;2023-08-31T09:23:28;3.4;;;1.0;;
68375;SDS011;55318;52.068;5.188;2023-08-31T09:25:04;2.21;;;0.9;;
68375;SDS011;55318;52.068;5.188;2023-08-31T09:26:43;1.8;;;1.2;;
68375;SDS011;55318;52.068;5.188;2023-08-31T09:29:58;1.6;;;0.5;;
68375;SDS011;55318;52.068;5.188;2023-08-31T09:33:13;2.4;;;0.5;;
68375;SDS011;55318;52.068;5.188;2023-08-31T09:36:28;1.9;;;0.7;;
68375;SDS011;55318;52.068;5.188;2023-08-31T09:38:07;2.31;;;0.9;;
68375;SDS011;55318;52.068;5.188;2023-08-31T09:39:44;2.5;;;0.5;;
68375;SDS011;55318;52.068;5.188;2023-08-31T09:41:20;1.7;;;0.9;;
68375;SDS011;55318;52.068;5.188;2023-08-31T09:44:32;2.31;;;0.5;;
68375;SDS011;55318;52.068;5.188;2023-08-31T09:46:08;2.7;;;0.7;;
68375;SDS011;55318;52.068;5.188;2023-08-31T09:47:45;4.3;;;1.2;;
68375;SDS011;55318;52.068;5.188;2023-08-31T09:50:59;1.8;;;0.6;;
68375;SDS011;55318;52.068;5.188;2023-08-31T09:52:40;1.0;;;0.4;;
68375;SDS011;55318;52.068;5.188;2023-08-31T09:54:16;2.1;;;0.7;;
68375;SDS011;55318;52.068;5.188;2023-08-31T09:55:56;1.7;;;0.9;;
68375;SDS011;55318;52.068;5.188;2023-08-31T09:59:11;2.31;;;0.4;;
68375;SDS011;55318;52.068;5.188;2023-08-31T10:00:49;0.9;;;0.5;;
68375;SDS011;55318;52.068;5.188;2023-08-31T10:02:26;1.11;;;0.4;;
68375;SDS011;55318;52.068;5.188;2023-08-31T10:05:42;0.7;;;0.5;;
68375;SDS011;55318;52.068;5.188;2023-08-31T10:07:20;0.8;;;0.6;;
68375;SDS011;55318;52.068;5.188;2023-08-31T10:08:57;1.5;;;0.7;;
68375;SDS011;55318;52.068;5.188;2023-08-31T10:10:34;1.9;;;1.0;;
68375;SDS011;55318;52.068;5.188;2023-08-31T10:13:49;1.7;;;0.4;;
68375;SDS011;55318;52.068;5.188;2023-08-31T10:15:26;0.9;;;0.7;;
68375;SDS011;55318;52.068;5.188;2023-08-31T10:17:07;1.5;;;0.8;;
68375;SDS011;55318;52.068;5.188;2023-08-31T10:20:20;1.0;;;0.7;;
68375;SDS011;55318;52.068;5.188;2023-08-31T10:21:56;1.11;;;0.5;;
68375;SDS011;55318;52.068;5.188;2023-08-31T10:23:33;3.0;;;0.5;;
68375;SDS011;55318;52.068;5.188;2023-08-31T10:26:46;2.31;;;0.8;;
68375;SDS011;55318;52.068;5.188;2023-08-31T10:28:22;3.8;;;0.7;;
68375;SDS011;55318;52.068;5.188;2023-08-31T10:30:12;2.4;;;0.7;;
68375;SDS011;55318;52.068;5.188;2023-08-31T10:31:49;1.3;;;0.3;;
68375;SDS011;55318;52.068;5.188;2023-08-31T10:35:05;0.6;;;0.4;;
68375;SDS011;55318;52.068;5.188;2023-08-31T10:36:44;2.9;;;0.5;;
68375;SDS011;55318;52.068;5.188;2023-08-31T10:38:23;0.7;;;0.4;;
68375;SDS011;55318;52.068;5.188;2023-08-31T10:40:09;0.6;;;0.6;;
68375;SDS011;55318;52.068;5.188;2023-08-31T10:43:42;4.2;;;0.7;;
68375;SDS011;55318;52.068;5.188;2023-08-31T10:45:19;1.2;;;0.4;;
68375;SDS011;55318;52.068;5.188;2023-08-31T10:46:58;1.5;;;0.9;;
68375;SDS011;55318;52.068;5.188;2023-08-31T10:48:48;4.5;;;0.6;;
68375;SDS011;55318;52.068;5.188;2023-08-31T10:50:25;0.6;;;0.5;;
68375;SDS011;55318;52.068;5.188;2023-08-31T10:53:52;0.9;;;0.5;;
68375;SDS011;55318;52.068;5.188;2023-08-31T10:55:49;1.4;;;0.5;;
68375;SDS011;55318;52.068;5.188;2023-08-31T10:57:29;1.11;;;0.4;;
68375;SDS011;55318;52.068;5.188;2023-08-31T10:59:06;2.31;;;0.5;;
68375;SDS011;55318;52.068;5.188;2023-08-31T11:02:29;1.4;;;0.5;;
68375;SDS011;55318;52.068;5.188;2023-08-31T11:04:09;0.5;;;0.3;;
68375;SDS011;55318;52.068;5.188;2023-08-31T11:05:53;2.21;;;1.0;;
68375;SDS011;55318;52.068;5.188;2023-08-31T11:07:30;0.8;;;0.6;;
68375;SDS011;55318;52.068;5.188;2023-08-31T11:10:54;1.2;;;0.8;;
68375;SDS011;55318;52.068;5.188;2023-08-31T11:12:30;1.0;;;0.5;;
68375;SDS011;55318;52.068;5.188;2023-08-31T11:14:08;1.4;;;0.6;;
68375;SDS011;55318;52.068;5.188;2023-08-31T11:18:59;0.4;;;0.4;;
68375;SDS011;55318;52.068;5.188;2023-08-31T11:20:35;1.11;;;0.8;;
68375;SDS011;55318;52.068;5.188;2023-08-31T11:22:12;0.6;;;0.4;;
68375;SDS011;55318;52.068;5.188;2023-08-31T11:23:48;1.3;;;0.8;;
68375;SDS011;55318;52.068;5.188;2023-08-31T11:27:01;1.0;;;0.4;;
68375;SDS011;55318;52.068;5.188;2023-08-31T11:28:37;0.6;;;0.5;;
68375;SDS011;55318;52.068;5.188;2023-08-31T11:30:14;3.6;;;0.9;;
68375;SDS011;55318;52.068;5.188;2023-08-31T11:33:31;2.4;;;0.5;;
68375;SDS011;55318;52.068;5.188;2023-08-31T11:35:07;2.8;;;0.5;;
68375;SDS011;55318;52.068;5.188;2023-08-31T11:36:44;0.8;;;0.5;;
68375;SDS011;55318;52.068;5.188;2023-08-31T11:40:00;1.3;;;0.4;;
68375;SDS011;55318;52.068;5.188;2023-08-31T11:41:36;3.0;;;0.9;;
68375;SDS011;55318;52.068;5.188;2023-08-31T11:43:14;0.9;;;0.6;;
68375;SDS011;55318;52.068;5.188;2023-08-31T11:44:51;1.5;;;0.7;;
68375;SDS011;55318;52.068;5.188;2023-08-31T11:48:04;0.9;;;0.6;;
68375;SDS011;55318;52.068;5.188;2023-08-31T11:49:41;1.8;;;0.5;;
68375;SDS011;55318;52.068;5.188;2023-08-31T11:51:18;0.5;;;0.5;;
68375;SDS011;55318;52.068;5.188;2023-08-31T11:54:31;0.9;;;0.5;;
68375;SDS011;55318;52.068;5.188;2023-08-31T11:56:07;0.6;;;0.6;;
68375;SDS011;55318;52.068;5.188;2023-08-31T11:57:47;2.4;;;0.5;;
68375;SDS011;55318;52.068;5.188;2023-08-31T11:59:24;0.8;;;0.5;;
68375;SDS011;55318;52.068;5.188;2023-08-31T12:02:36;0.8;;;0.5;;
68375;SDS011;55318;52.068;5.188;2023-08-31T12:04:13;1.2;;;0.3;;
68375;SDS011;55318;52.068;5.188;2023-08-31T12:05:52;1.7;;;0.5;;
68375;SDS011;55318;52.068;5.188;2023-08-31T12:09:06;0.5;;;0.5;;
68375;SDS011;55318;52.068;5.188;2023-08-31T12:10:43;0.9;;;0.8;;
68375;SDS011;55318;52.068;5.188;2023-08-31T12:12:22;0.9;;;0.4;;
68375;SDS011;55318;52.068;5.188;2023-08-31T12:13:59;0.8;;;0.4;;
68375;SDS011;55318;52.068;5.188;2023-08-31T12:17:12;1.7;;;0.3;;
68375;SDS011;55318;52.068;5.188;2023-08-31T12:18:48;1.4;;;0.5;;
68375;SDS011;55318;52.068;5.188;2023-08-31T12:20:24;1.9;;;0.3;;
68375;SDS011;55318;52.068;5.188;2023-08-31T12:23:37;2.0;;;0.5;;
68375;SDS011;55318;52.068;5.188;2023-08-31T12:25:19;1.5;;;0.6;;
68375;SDS011;55318;52.068;5.188;2023-08-31T12:26:56;1.8;;;0.6;;
68375;SDS011;55318;52.068;5.188;2023-08-31T12:30:08;0.4;;;0.4;;
68375;SDS011;55318;52.068;5.188;2023-08-31T12:31:45;0.4;;;0.4;;
68375;SDS011;55318;52.068;5.188;2023-08-31T12:33:21;1.8;;;0.5;;
68375;SDS011;55318;52.068;5.188;2023-08-31T12:34:58;0.8;;;0.6;;
68375;SDS011;55318;52.068;5.188;2023-08-31T12:38:12;3.9;;;0.7;;
68375;SDS011;55318;52.068;5.188;2023-08-31T12:39:49;0.8;;;0.5;;
68375;SDS011;55318;52.068;5.188;2023-08-31T12:41:25;0.8;;;0.4;;
68375;SDS011;55318;52.068;5.188;2023-08-31T12:44:37;0.3;;;0.3;;
68375;SDS011;55318;52.068;5.188;2023-08-31T12:46:13;0.6;;;0.5;;
68375;SDS011;55318;52.068;5.188;2023-08-31T12:47:49;0.7;;;0.4;;
68375;SDS011;55318;52.068;5.188;2023-08-31T12:51:01;3.2;;;0.8;;
68375;SDS011;55318;52.068;5.188;2023-08-31T12:52:38;1.4;;;0.7;;
68375;SDS011;55318;52.068;5.188;2023-08-31T12:54:14;0.7;;;0.6;;
68375;SDS011;55318;52.068;5.188;2023-08-31T12:55:50;1.3;;;0.6;;
68375;SDS011;55318;52.068;5.188;2023-08-31T12:59:02;1.8;;;0.7;;
68375;SDS011;55318;52.068;5.188;2023-08-31T13:00:39;0.8;;;0.4;;
68375;SDS011;55318;52.068;5.188;2023-08-31T13:02:15;1.3;;;0.5;;
68375;SDS011;55318;52.068;5.188;2023-08-31T13:05:27;2.4;;;1.3;;